Time;durP1;ratioP1;P1;durP2;ratioP2;P2;SDS_P1;SDS_P2;PMS_P1;PMS_P2;Temp;Humidity;BMP_temperature;BMP_pressure;BME280_temperature;BME280_humidity;BME280_pressure;Samples;Min_cycle;Max_cycle;Signal;HPM_P1;HPM_P2
2022/04/21 00:02:25;;;;;;;;;;;;;;;3.96;100.00;97793.84;1702195;83;22182;-87
2022/04/21 00:04:50;;;;;;;;;;;;;;;4.09;100.00;97795.68;1705265;83;21097;-86
2022/04/21 00:07:17;;;;;;;;;;;;;;;4.07;100.00;97794.95;1708652;83;24479;-86
2022/04/21 00:09:49;;;;;;;;;;;;;;;3.95;100.00;97790.87;1707815;83;20307;-86
2022/04/21 00:12:16;;;;;;;;;;;;;;;4.01;100.00;97789.26;1705916;83;24830;-86
2022/04/21 00:14:42;;;;;;;;;;;;;;;4.11;100.00;97787.38;1706578;83;22287;-85
2022/04/21 00:17:11;;;;;;;;;;;;;;;4.16;100.00;97791.02;1704658;83;25974;-86
2022/04/21 00:19:37;;;;;;;;;;;;;;;4.00;100.00;97792.77;1710011;82;24516;-86
2022/04/21 00:24:55;;;;;;;;;;;;;;;3.75;100.00;97793.25;1707175;83;24866;-86
2022/04/21 00:27:24;;;;;;;;;;;;;;;3.92;100.00;97802.70;1703296;83;22149;-88
2022/04/21 00:29:50;;;;;;;;;;;;;;;3.98;100.00;97804.48;1710295;83;26045;-86
2022/04/21 00:32:16;;;;;;;;;;;;;;;3.91;100.00;97801.87;1708580;83;20304;-87
2022/04/21 00:34:42;;;;;;;;;;;;;;;3.78;100.00;97800.38;1703389;83;20802;-86
2022/04/21 00:37:08;;;;;;;;;;;;;;;3.63;100.00;97800.34;1706635;83;20248;-86
2022/04/21 00:39:34;;;;;;;;;;;;;;;3.54;100.00;97800.84;1705831;83;22044;-86
2022/04/21 00:42:01;;;;;;;;;;;;;;;3.61;100.00;97799.13;1707718;83;21267;-86
2022/04/21 00:44:28;;;;;;;;;;;;;;;3.72;100.00;97790.34;1709138;82;24413;-87
2022/04/21 00:46:57;;;;;;;;;;;;;;;3.81;100.00;97792.92;1705990;83;20256;-86
2022/04/21 00:49:25;;;;;;;;;;;;;;;3.74;100.00;97801.46;1708868;83;24902;-87
2022/04/21 00:51:53;;;;;;;;;;;;;;;3.57;100.00;97801.50;1708178;83;22962;-86
2022/04/21 00:54:19;;;;;;;;;;;;;;;3.44;100.00;97799.64;1710986;83;25950;-86
2022/04/21 00:56:45;;;;;;;;;;;;;;;3.36;100.00;97800.02;1708393;83;20339;-86
2022/04/21 00:59:11;;;;;;;;;;;;;;;3.30;100.00;97801.62;1703071;83;20822;-86
2022/04/21 01:04:26;;;;;;;;;;;;;;;3.21;100.00;97792.59;1687996;83;21391;-86
2022/04/21 01:06:53;;;;;;;;;;;;;;;3.06;100.00;97793.34;1705146;84;25943;-86
2022/04/21 01:09:19;;;;;;;;;;;;;;;2.87;100.00;97796.02;1696877;84;24541;-86
2022/04/21 01:11:45;;;;;;;;;;;;;;;2.72;100.00;97795.94;1697813;84;20835;-86
2022/04/21 01:14:13;;;;;;;;;;;;;;;2.64;100.00;97791.13;1697317;83;24721;-87
2022/04/21 01:16:42;;;;;;;;;;;;;;;2.60;100.00;97797.81;1698157;84;22044;-85
2022/04/21 01:19:08;;;;;;;;;;;;;;;2.55;100.00;97803.20;1697521;84;25487;-86
2022/04/21 01:21:33;;;;;;;;;;;;;;;2.59;100.00;97798.27;1701581;83;21016;-86
2022/04/21 01:23:59;;;;;;;;;;;;;;;2.82;100.00;97797.16;1698762;82;20827;-87
2022/04/21 01:26:27;;;;;;;;;;;;;;;2.99;100.00;97799.75;1698428;84;24787;-87
2022/04/21 01:28:54;;;;;;;;;;;;;;;3.12;100.00;97789.62;1695630;84;22086;-86
2022/04/21 01:31:22;;;;;;;;;;;;;;;3.21;100.00;97794.34;1700132;84;25960;-86
2022/04/21 01:33:48;;;;;;;;;;;;;;;3.28;100.00;97794.39;1697431;84;24673;-87
2022/04/21 01:36:15;;;;;;;;;;;;;;;3.33;100.00;97796.28;1697414;83;20309;-86
2022/04/21 01:41:25;;;;;;;;;;;;;;;3.04;100.00;97794.34;1704769;84;22024;-87
2022/04/21 01:43:51;;;;;;;;;;;;;;;2.82;100.00;97791.54;1698281;84;21022;-87
2022/04/21 01:46:17;;;;;;;;;;;;;;;2.67;100.00;97792.75;1693734;83;20228;-86
2022/04/21 01:48:49;;;;;;;;;;;;;;;2.63;100.00;97793.33;1698640;84;20214;-85
2022/04/21 01:51:15;;;;;;;;;;;;;;;2.55;100.00;97795.91;1698274;84;24972;-86
2022/04/21 01:53:41;;;;;;;;;;;;;;;2.57;100.00;97795.36;1698643;83;20241;-86
2022/04/21 01:56:08;;;;;;;;;;;;;;;2.49;100.00;97795.30;1695392;83;20957;-87
2022/04/21 01:58:34;;;;;;;;;;;;;;;2.43;100.00;97792.16;1697005;84;24439;-85
2022/04/21 02:01:01;;;;;;;;;;;;;;;2.38;100.00;97791.55;1702294;84;20313;-87
2022/04/21 02:03:30;;;;;;;;;;;;;;;2.31;100.00;97795.31;1697326;83;24845;-87
2022/04/21 02:05:56;;;;;;;;;;;;;;;2.31;100.00;97795.31;1695179;83;22015;-87
2022/04/21 02:08:22;;;;;;;;;;;;;;;2.30;100.00;97791.90;1698023;84;21070;-87
2022/04/21 02:10:50;;;;;;;;;;;;;;;2.32;100.00;97790.55;1698818;84;24666;-86
2022/04/21 02:13:16;;;;;;;;;;;;;;;2.51;100.00;97790.87;1700244;84;20224;-86
2022/04/21 02:15:42;;;;;;;;;;;;;;;2.67;100.00;97791.00;1697728;84;20280;-86
2022/04/21 02:18:08;;;;;;;;;;;;;;;2.82;100.00;97793.28;1698083;84;21947;-86
2022/04/21 02:20:34;;;;;;;;;;;;;;;2.94;100.00;97787.06;1694315;84;21005;-87
2022/04/21 02:23:00;;;;;;;;;;;;;;;3.02;100.00;97783.23;1699119;83;24378;-87
2022/04/21 02:25:25;;;;;;;;;;;;;;;3.04;100.00;97786.59;1699769;84;20278;-86
2022/04/21 02:27:51;;;;;;;;;;;;;;;3.16;100.00;97784.70;1699283;84;20769;-86
2022/04/21 02:30:18;;;;;;;;;;;;;;;3.20;100.00;97782.33;1696716;83;20339;-87
2022/04/21 02:32:44;;;;;;;;;;;;;;;3.19;100.00;97790.53;1699037;84;26019;-87
2022/04/21 02:35:11;;;;;;;;;;;;;;;3.13;100.00;97786.12;1703305;83;24391;-86
2022/04/21 02:37:39;;;;;;;;;;;;;;;3.08;100.00;97778.61;1701489;84;20455;-87
2022/04/21 02:40:06;;;;;;;;;;;;;;;3.10;100.00;97772.91;1697355;84;24860;-86
2022/04/21 02:42:31;;;;;;;;;;;;;;;3.14;100.00;97780.05;1699250;84;21948;-87
2022/04/21 02:44:58;;;;;;;;;;;;;;;3.14;100.00;97776.17;1698949;83;21281;-87
2022/04/21 02:47:24;;;;;;;;;;;;;;;2.93;100.00;97776.34;1696377;83;24706;-86
2022/04/21 02:49:50;;;;;;;;;;;;;;;2.74;100.00;97783.77;1697165;83;20265;-86
2022/04/21 02:52:21;;;;;;;;;;;;;;;2.63;100.00;97785.58;1700554;84;24768;-86
2022/04/21 02:57:32;;;;;;;;;;;;;;;2.74;100.00;97785.89;1699292;84;26708;-85
2022/04/21 02:59:59;;;;;;;;;;;;;;;2.60;100.00;97784.45;1699557;83;24591;-87
2022/04/21 03:02:26;;;;;;;;;;;;;;;2.44;100.00;97784.36;1698988;82;20486;-86
2022/04/21 03:04:55;;;;;;;;;;;;;;;2.32;100.00;97792.67;1695490;84;24949;-86
2022/04/21 03:07:22;;;;;;;;;;;;;;;2.28;100.00;97795.48;1693116;84;22201;-86
2022/04/21 03:09:49;;;;;;;;;;;;;;;2.20;100.00;97791.95;1693583;84;26035;-87
2022/04/21 03:12:15;;;;;;;;;;;;;;;2.16;100.00;97790.87;1691179;84;24127;-86
2022/04/21 03:14:42;;;;;;;;;;;;;;;2.09;100.00;97789.03;1692988;84;20297;-88
2022/04/21 03:17:09;;;;;;;;;;;;;;;2.15;100.00;97782.75;1692659;84;24844;-86
2022/04/21 03:19:35;;;;;;;;;;;;;;;2.28;100.00;97774.83;1693868;84;21981;-86
2022/04/21 03:24:46;;;;;;;;;;;;;;;2.49;100.00;97769.47;1691498;84;24392;-86
2022/04/21 03:27:12;;;;;;;;;;;;;;;2.60;100.00;97766.82;1695746;84;20798;-86
2022/04/21 03:29:40;;;;;;;;;;;;;;;2.68;100.00;97768.11;1694327;83;20255;-86
2022/04/21 03:32:09;;;;;;;;;;;;;;;2.73;100.00;97767.42;1693786;84;22174;-85
2022/04/21 03:34:37;;;;;;;;;;;;;;;2.65;100.00;97760.98;1692140;84;26084;-87
2022/04/21 03:37:05;;;;;;;;;;;;;;;2.62;100.00;97758.56;1692513;84;25161;-86
2022/04/21 03:39:31;;;;;;;;;;;;;;;2.53;100.00;97767.12;1671347;84;20254;-87
2022/04/21 03:41:59;;;;;;;;;;;;;;;2.42;100.00;97765.50;1692559;84;20861;-87
2022/04/21 03:44:25;;;;;;;;;;;;;;;2.32;100.00;97770.73;1693025;84;21965;-87
2022/04/21 03:46:51;;;;;;;;;;;;;;;2.24;100.00;97771.98;1693584;83;21049;-86
2022/04/21 03:49:16;;;;;;;;;;;;;;;2.20;100.00;97767.87;1694597;84;20408;-86
2022/04/21 03:51:43;;;;;;;;;;;;;;;2.25;100.00;97769.79;1692212;84;20423;-86
2022/04/21 03:54:09;;;;;;;;;;;;;;;2.28;100.00;97769.20;1693840;84;25520;-87
2022/04/21 03:56:35;;;;;;;;;;;;;;;2.21;100.00;97769.56;1691684;84;20841;-87
2022/04/21 03:59:01;;;;;;;;;;;;;;;2.19;100.00;97765.75;1693624;84;21060;-85
2022/04/21 04:01:27;;;;;;;;;;;;;;;2.19;100.00;97769.63;1694680;84;20366;-86
2022/04/21 04:03:53;;;;;;;;;;;;;;;2.14;100.00;97779.33;1694851;84;20816;-85
2022/04/21 04:11:56;;;;;;;;;;;;;;;1.97;100.00;97778.81;1687830;83;26094;-86
2022/04/21 04:14:22;;;;;;;;;;;;;;;2.08;100.00;97782.19;1710560;83;20859;-86
2022/04/21 04:16:48;;;;;;;;;;;;;;;2.24;100.00;97783.14;1698700;83;20178;-87
2022/04/21 04:19:14;;;;;;;;;;;;;;;2.32;100.00;97772.47;1685506;84;24805;-87
2022/04/21 04:21:40;;;;;;;;;;;;;;;2.29;100.00;97766.98;1685301;84;20864;-87
2022/04/21 04:24:06;;;;;;;;;;;;;;;2.29;100.00;97762.30;1692136;82;21036;-86
2022/04/21 04:26:32;;;;;;;;;;;;;;;2.26;100.00;97772.76;1693973;83;24468;-86
2022/04/21 04:28:59;;;;;;;;;;;;;;;2.28;100.00;97770.50;1698177;83;20227;-86
2022/04/21 04:31:25;;;;;;;;;;;;;;;2.29;100.00;97769.56;1694242;84;24903;-87
2022/04/21 04:33:56;;;;;;;;;;;;;;;2.39;100.00;97771.28;1695781;83;21955;-86
2022/04/21 04:36:28;;;;;;;;;;;;;;;2.45;100.00;97773.58;1712771;83;26037;-86
2022/04/21 04:38:54;;;;;;;;;;;;;;;2.54;100.00;97775.70;1711959;83;24411;-86
2022/04/21 04:44:05;;;;;;;;;;;;;;;2.52;100.00;97784.80;1711942;83;24785;-86
2022/04/21 04:46:37;;;;;;;;;;;;;;;2.54;100.00;97779.58;1712866;83;22075;-86
2022/04/21 04:49:08;;;;;;;;;;;;;;;2.64;100.00;97772.21;1704992;83;25974;-86
2022/04/21 04:51:34;;;;;;;;;;;;;;;2.77;100.00;97779.30;1687234;84;24500;-86
2022/04/21 04:54:01;;;;;;;;;;;;;;;2.79;100.00;97776.63;1696081;83;20611;-86
2022/04/21 04:56:29;;;;;;;;;;;;;;;2.77;100.00;97781.89;1691391;83;24646;-86
2022/04/21 04:58:56;;;;;;;;;;;;;;;2.76;100.00;97785.83;1709708;83;22133;-86
2022/04/21 05:01:26;;;;;;;;;;;;;;;2.75;100.00;97786.28;1713039;83;25994;-86
2022/04/21 05:03:51;;;;;;;;;;;;;;;2.83;100.00;97789.34;1684348;83;24663;-86
2022/04/21 05:06:17;;;;;;;;;;;;;;;2.94;100.00;97799.98;1670412;86;20632;-86
2022/04/21 05:08:42;;;;;;;;;;;;;;;3.14;100.00;97801.56;1670478;86;20509;-87
2022/04/21 05:11:11;;;;;;;;;;;;;;;3.21;100.00;97800.35;1668024;86;20264;-87
2022/04/21 05:13:38;;;;;;;;;;;;;;;3.25;100.00;97797.98;1651042;86;26063;-87
2022/04/21 05:16:04;;;;;;;;;;;;;;;3.31;100.00;97800.72;1670540;86;24383;-87
2022/04/21 05:18:30;;;;;;;;;;;;;;;3.42;100.00;97799.71;1665743;84;20448;-85
2022/04/21 05:20:56;;;;;;;;;;;;;;;3.53;100.00;97806.92;1663584;86;24898;-86
2022/04/21 05:23:23;;;;;;;;;;;;;;;3.69;100.00;97806.05;1670523;86;21960;-87
2022/04/21 05:25:49;;;;;;;;;;;;;;;3.92;100.00;97797.53;1670438;85;26713;-86
2022/04/21 05:28:15;;;;;;;;;;;;;;;4.10;100.00;97800.41;1670254;86;24366;-86
2022/04/21 05:30:58;;;;;;;;;;;;;;;4.25;100.00;97797.01;1670462;84;20221;-86
2022/04/21 05:33:26;;;;;;;;;;;;;;;4.46;100.00;97797.58;1669932;85;25382;-86
2022/04/21 05:35:53;;;;;;;;;;;;;;;4.76;100.00;97791.12;1670315;86;21920;-86
2022/04/21 05:38:22;;;;;;;;;;;;;;;4.91;100.00;97794.96;1670368;86;26027;-86
2022/04/21 05:40:49;;;;;;;;;;;;;;;5.06;100.00;97795.86;1664736;85;25124;-86
2022/04/21 05:43:16;;;;;;;;;;;;;;;5.18;100.00;97795.16;1670400;86;20584;-86
2022/04/21 05:45:43;;;;;;;;;;;;;;;5.22;100.00;97795.34;1670489;86;24842;-86
2022/04/21 05:48:15;;;;;;;;;;;;;;;5.30;100.00;97791.81;1670276;86;22003;-86
2022/04/21 05:50:47;;;;;;;;;;;;;;;5.38;100.00;97801.30;1670342;85;26124;-86
2022/04/21 05:53:14;;;;;;;;;;;;;;;5.45;100.00;97798.69;1670421;86;24409;-87
2022/04/21 05:55:40;;;;;;;;;;;;;;;5.57;100.00;97805.37;1669628;85;20232;-86
2022/04/21 05:58:06;;;;;;;;;;;;;;;5.60;100.00;97809.09;1670352;86;24687;-87
2022/04/21 06:00:35;;;;;;;;;;;;;;;5.60;100.00;97807.80;1670581;86;20280;-87
2022/04/21 06:03:01;;;;;;;;;;;;;;;5.56;100.00;97808.46;1676467;83;26125;-87
2022/04/21 06:05:29;;;;;;;;;;;;;;;5.57;100.00;97809.27;1708630;82;24475;-87
2022/04/21 06:07:56;;;;;;;;;;;;;;;5.61;100.00;97814.20;1700634;84;20222;-87
2022/04/21 06:10:22;;;;;;;;;;;;;;;5.66;100.00;97813.92;1702304;83;24693;-87
2022/04/21 06:12:51;;;;;;;;;;;;;;;5.67;100.00;97813.01;1705240;82;22790;-86
2022/04/21 06:15:17;;;;;;;;;;;;;;;5.74;100.00;97807.80;1708226;83;27202;-87
2022/04/21 06:17:45;;;;;;;;;;;;;;;5.75;100.00;97812.91;1709262;83;20272;-87
2022/04/21 06:20:11;;;;;;;;;;;;;;;5.75;100.00;97809.47;1704514;83;20674;-87
2022/04/21 06:22:37;;;;;;;;;;;;;;;5.79;100.00;97813.54;1705054;82;20272;-87
2022/04/21 06:25:04;;;;;;;;;;;;;;;5.82;100.00;97816.80;1705875;83;21945;-87
2022/04/21 06:27:30;;;;;;;;;;;;;;;5.84;100.00;97814.93;1706324;83;25986;-87
2022/04/21 06:29:56;;;;;;;;;;;;;;;5.84;100.00;97814.09;1707166;83;20469;-87
2022/04/21 06:32:24;;;;;;;;;;;;;;;5.87;100.00;97810.90;1707225;83;20286;-87
2022/04/21 06:34:57;;;;;;;;;;;;;;;5.89;100.00;97812.92;1706392;83;24662;-87
2022/04/21 06:37:25;;;;;;;;;;;;;;;5.92;100.00;97811.91;1708898;83;21440;-87
2022/04/21 06:39:51;;;;;;;;;;;;;;;6.02;100.00;97811.72;1705801;83;26051;-87
2022/04/21 06:42:17;;;;;;;;;;;;;;;6.12;100.00;97810.22;1708627;83;24286;-87
2022/04/21 06:50:33;;;;;;;;;;;;;;;6.36;100.00;97806.56;1705654;83;22676;-86
2022/04/21 06:53:01;;;;;;;;;;;;;;;6.38;100.00;97816.88;1702689;83;26018;-86
2022/04/21 06:55:27;;;;;;;;;;;;;;;6.41;100.00;97809.70;1708073;83;24610;-86
2022/04/21 06:57:53;;;;;;;;;;;;;;;6.48;100.00;97814.89;1704825;83;20312;-86
2022/04/21 07:00:25;;;;;;;;;;;;;;;6.54;100.00;97813.67;1708252;83;20657;-87
2022/04/21 07:02:51;;;;;;;;;;;;;;;6.57;100.00;97819.96;1708640;83;22010;-86
2022/04/21 07:05:17;;;;;;;;;;;;;;;6.60;100.00;97823.69;1704080;83;26022;-86
2022/04/21 07:07:44;;;;;;;;;;;;;;;6.63;100.00;97822.17;1706215;82;24505;-87
2022/04/21 07:10:11;;;;;;;;;;;;;;;6.67;100.00;97819.28;1708295;83;20501;-87
2022/04/21 07:12:37;;;;;;;;;;;;;;;6.73;100.00;97824.55;1703479;83;24865;-86
2022/04/21 07:15:05;;;;;;;;;;;;;;;6.78;100.00;97819.89;1706907;83;22318;-87
2022/04/21 07:17:31;;;;;;;;;;;;;;;6.76;100.00;97821.77;1707765;82;26073;-86
2022/04/21 07:19:58;;;;;;;;;;;;;;;6.84;100.00;97818.20;1710841;83;24424;-87
2022/04/21 07:22:25;;;;;;;;;;;;;;;6.92;100.00;97822.45;1704610;82;20767;-87
2022/04/21 07:24:53;;;;;;;;;;;;;;;7.04;100.00;97820.33;1708797;83;24785;-87
2022/04/21 07:27:19;;;;;;;;;;;;;;;7.08;100.00;97817.08;1705082;83;22048;-87
2022/04/21 07:29:45;;;;;;;;;;;;;;;7.18;100.00;97816.00;1705794;83;25975;-86
2022/04/21 07:32:17;;;;;;;;;;;;;;;7.28;100.00;97817.05;1707019;83;20325;-87
2022/04/21 07:34:44;;;;;;;;;;;;;;;7.36;100.00;97813.48;1707947;83;20581;-87
2022/04/21 07:37:11;;;;;;;;;;;;;;;7.48;100.00;97817.85;1708826;82;24343;-87
2022/04/21 07:39:38;;;;;;;;;;;;;;;7.50;100.00;97808.18;1705969;83;22044;-86
2022/04/21 07:42:05;;;;;;;;;;;;;;;7.57;100.00;97812.05;1705596;83;26080;-87
2022/04/21 07:44:34;;;;;;;;;;;;;;;7.69;100.00;97812.98;1707964;83;24355;-86
2022/04/21 07:46:59;;;;;;;;;;;;;;;7.77;100.00;97814.12;1707972;83;20267;-87
2022/04/21 07:54:54;;;;;;;;;;;;;;;7.92;100.00;97807.84;1706088;82;26064;-87
2022/04/21 07:57:20;;;;;;;;;;;;;;;7.89;100.00;97805.47;1707457;83;20408;-86
2022/04/21 07:59:49;;;;;;;;;;;;;;;7.84;100.00;97804.12;1711440;83;20259;-86
2022/04/21 08:02:16;;;;;;;;;;;;;;;7.86;100.00;97810.03;1705079;83;24419;-86
2022/04/21 08:04:47;;;;;;;;;;;;;;;7.91;100.00;97807.95;1698923;82;21992;-86
2022/04/21 08:07:14;;;;;;;;;;;;;;;7.97;100.00;97814.88;1688831;83;25992;-85
2022/04/21 08:09:40;;;;;;;;;;;;;;;8.06;100.00;97813.89;1688918;84;20298;-86
2022/04/21 08:12:07;;;;;;;;;;;;;;;8.15;100.00;97815.84;1688766;84;20870;-86
2022/04/21 08:14:33;;;;;;;;;;;;;;;8.18;100.00;97811.73;1683536;84;24738;-86
2022/04/21 08:17:00;;;;;;;;;;;;;;;8.24;100.00;97816.02;1688258;84;21869;-86
2022/04/21 08:19:26;;;;;;;;;;;;;;;8.28;100.00;97809.67;1689306;84;26094;-86
2022/04/21 08:21:52;;;;;;;;;;;;;;;8.37;100.00;97809.05;1690405;84;20329;-87
2022/04/21 08:32:34;;;;;;;;;;;;;;;8.84;100.00;97802.68;1689365;83;25999;-87
2022/04/21 08:35:06;;;;;;;;;;;;;;;8.92;100.00;97797.25;1688000;84;20856;-87
2022/04/21 08:37:35;;;;;;;;;;;;;;;9.02;100.00;97797.40;1683657;84;20514;-87
2022/04/21 08:40:02;;;;;;;;;;;;;;;9.14;100.00;97793.42;1686676;84;25387;-87
2022/04/21 08:42:31;;;;;;;;;;;;;;;9.20;100.00;97789.52;1688882;84;22042;-87
2022/04/21 08:45:02;;;;;;;;;;;;;;;9.30;100.00;97790.49;1688771;84;26033;-87
2022/04/21 08:47:28;;;;;;;;;;;;;;;9.47;100.00;97790.53;1692426;84;24457;-87
2022/04/21 08:49:59;;;;;;;;;;;;;;;9.59;100.00;97788.30;1685177;84;20183;-87
2022/04/21 08:52:25;;;;;;;;;;;;;;;9.71;100.00;97793.88;1686355;84;24937;-87
2022/04/21 08:54:51;;;;;;;;;;;;;;;9.83;100.00;97793.41;1690588;84;21981;-87
2022/04/21 08:57:17;;;;;;;;;;;;;;;9.89;100.00;97791.64;1694833;84;26030;-88
2022/04/21 08:59:43;;;;;;;;;;;;;;;9.87;100.00;97795.66;1684889;84;24414;-87
2022/04/21 09:02:10;;;;;;;;;;;;;;;9.86;100.00;97799.73;1689390;84;20514;-87
2022/04/21 09:04:37;;;;;;;;;;;;;;;9.84;100.00;97795.08;1689565;83;24909;-87
2022/04/21 09:07:14;;;;;;;;;;;;;;;9.84;100.00;97802.92;1696345;84;22051;-87
2022/04/21 09:09:42;;;;;;;;;;;;;;;9.82;100.00;97800.41;1693757;84;26160;-87
2022/04/21 09:12:12;;;;;;;;;;;;;;;9.68;100.00;97801.13;1688006;84;24592;-87
2022/04/21 09:14:39;;;;;;;;;;;;;;;9.74;100.00;97794.12;1690548;84;20299;-87
2022/04/21 09:17:05;;;;;;;;;;;;;;;9.59;100.00;97787.83;1692229;83;24860;-86
2022/04/21 09:19:32;;;;;;;;;;;;;;;9.53;100.00;97788.77;1691314;84;22087;-86
2022/04/21 09:22:00;;;;;;;;;;;;;;;9.60;100.00;97788.16;1691004;84;25995;-86
2022/04/21 09:24:27;;;;;;;;;;;;;;;9.75;100.00;97782.73;1692108;84;25378;-86
2022/04/21 09:26:56;;;;;;;;;;;;;;;9.84;100.00;97781.54;1692809;84;20187;-86
2022/04/21 09:29:24;;;;;;;;;;;;;;;9.94;100.00;97782.96;1693676;84;24746;-86
2022/04/21 09:31:58;;;;;;;;;;;;;;;10.02;100.00;97784.52;1693308;84;22003;-86
2022/04/21 09:34:25;;;;;;;;;;;;;;;10.13;100.00;97783.20;1689646;84;25958;-86
2022/04/21 09:36:52;;;;;;;;;;;;;;;10.25;100.00;97780.14;1693815;84;24371;-86
2022/04/21 09:39:18;;;;;;;;;;;;;;;10.29;100.00;97778.94;1694516;84;20287;-87
2022/04/21 09:41:44;;;;;;;;;;;;;;;10.33;100.00;97777.26;1694990;84;20359;-86
2022/04/21 09:47:02;;;;;;;;;;;;;;;10.30;100.00;97772.77;1692708;84;26205;-86
2022/04/21 09:49:35;;;;;;;;;;;;;;;10.27;100.00;97771.20;1690938;84;24538;-86
2022/04/21 09:52:01;;;;;;;;;;;;;;;10.35;99.94;97767.99;1692483;84;20254;-86
2022/04/21 09:54:36;;;;;;;;;;;;;;;10.41;99.51;97770.13;1690145;84;24734;-86
2022/04/21 09:56:59;;;;;;;;;;;;;;;10.48;99.05;97767.35;1691623;84;22197;-86
2022/04/21 09:59:25;;;;;;;;;;;;;;;10.57;98.67;97771.87;1690268;84;25972;-86
2022/04/21 10:01:51;;;;;;;;;;;;;;;10.63;98.33;97760.91;1694546;84;24548;-86
2022/04/21 10:04:20;;;;;;;;;;;;;;;10.78;98.27;97768.82;1693513;83;20400;-85
2022/04/21 10:06:48;;;;;;;;;;;;;;;10.92;98.17;97765.06;1714635;83;24882;-86
2022/04/21 10:09:16;;;;;;;;;;;;;;;11.03;97.82;97766.80;1713456;83;21997;-86
2022/04/21 10:11:44;;;;;;;;;;;;;;;11.12;97.45;97764.75;1710017;83;26115;-87
2022/04/21 10:14:15;;;;;;;;;;;;;;;11.20;97.11;97766.24;1706359;83;24473;-86
2022/04/21 10:16:42;;;;;;;;;;;;;;;11.21;96.58;97764.81;1710370;83;20471;-86
2022/04/21 10:19:19;;;;;;;;;;;;;;;11.24;96.08;97764.55;1705430;83;24814;-86
2022/04/21 10:21:53;;;;;;;;;;;;;;;11.33;95.95;97762.49;1706618;83;22671;-86
2022/04/21 10:24:24;;;;;;;;;;;;;;;11.30;95.47;97760.59;1704766;83;25996;-86
2022/04/21 10:26:53;;;;;;;;;;;;;;;11.33;94.92;97757.25;1705053;82;24716;-86
2022/04/21 10:29:23;;;;;;;;;;;;;;;11.33;94.29;97760.34;1709027;83;20210;-86
2022/04/21 10:32:03;;;;;;;;;;;;;;;11.31;93.54;97755.23;1707230;83;25592;-86
2022/04/21 10:34:37;;;;;;;;;;;;;;;11.32;92.84;97761.30;1705604;83;21495;-86
2022/04/21 10:37:11;;;;;;;;;;;;;;;11.42;92.62;97754.80;1708302;83;26938;-86
2022/04/21 10:39:37;;;;;;;;;;;;;;;11.51;92.51;97756.16;1707150;83;25213;-86
2022/04/21 10:42:14;;;;;;;;;;;;;;;11.60;92.31;97744.09;1709015;83;20248;-85
2022/04/21 10:44:46;;;;;;;;;;;;;;;11.71;92.01;97747.94;1704685;83;24840;-86
2022/04/21 10:47:30;;;;;;;;;;;;;;;11.80;91.77;97746.34;1705678;82;22202;-86
2022/04/21 10:49:57;;;;;;;;;;;;;;;11.90;91.55;97742.80;1707131;83;25987;-86
2022/04/21 10:57:55;;;;;;;;;;;;;;;12.10;90.00;97735.84;1675267;85;24809;-86
2022/04/21 11:00:27;;;;;;;;;;;;;;;12.10;89.37;97722.73;1664125;86;22295;-87
2022/04/21 11:03:08;;;;;;;;;;;;;;;12.10;88.86;97721.42;1663033;86;27033;-88
2022/04/21 11:05:36;;;;;;;;;;;;;;;12.26;88.68;97719.59;1658217;86;24278;-87
2022/04/21 11:08:05;;;;;;;;;;;;;;;12.42;88.51;97714.17;1654829;86;20564;-87
2022/04/21 11:10:46;;;;;;;;;;;;;;;12.50;87.96;97715.61;1661502;86;24753;-87
2022/04/21 11:13:12;;;;;;;;;;;;;;;12.58;87.53;97716.25;1661883;86;22066;-87
2022/04/21 11:15:41;;;;;;;;;;;;;;;12.68;87.21;97714.94;1647466;86;26030;-87
2022/04/21 11:18:17;;;;;;;;;;;;;;;12.72;86.74;97713.69;1642977;86;24614;-87
2022/04/21 11:20:44;;;;;;;;;;;;;;;12.79;86.43;97709.07;1631559;87;20261;-86
2022/04/21 11:23:12;;;;;;;;;;;;;;;12.78;85.74;97709.20;1645027;87;24807;-86
2022/04/21 11:25:38;;;;;;;;;;;;;;;12.67;84.79;97703.61;1642083;87;22074;-86
2022/04/21 11:28:05;;;;;;;;;;;;;;;12.72;84.28;97701.88;1641329;86;26135;-87
2022/04/21 11:30:31;;;;;;;;;;;;;;;12.83;83.80;97708.30;1652520;86;24445;-87
2022/04/21 11:32:57;;;;;;;;;;;;;;;12.94;83.64;97710.30;1652958;86;20175;-86
2022/04/21 11:35:24;;;;;;;;;;;;;;;12.94;83.03;97707.67;1640206;86;24910;-87
2022/04/21 11:38:00;;;;;;;;;;;;;;;12.92;82.58;97710.94;1655927;86;22032;-87
2022/04/21 11:40:31;;;;;;;;;;;;;;;12.90;82.12;97714.18;1654473;86;26094;-87
2022/04/21 11:42:58;;;;;;;;;;;;;;;12.94;81.80;97708.98;1651948;86;24558;-87
2022/04/21 11:45:27;;;;;;;;;;;;;;;13.07;81.52;97711.81;1651505;86;20679;-87
2022/04/21 11:47:56;;;;;;;;;;;;;;;13.14;81.09;97707.70;1650632;86;24705;-87
2022/04/21 11:50:27;;;;;;;;;;;;;;;13.09;80.38;97706.75;1653164;86;22103;-87
2022/04/21 11:52:54;;;;;;;;;;;;;;;13.15;79.84;97706.70;1651140;86;26803;-87
2022/04/21 11:55:23;;;;;;;;;;;;;;;13.26;79.54;97703.44;1650206;86;24483;-87
2022/04/21 11:57:49;;;;;;;;;;;;;;;13.35;79.33;97703.09;1647949;86;20154;-87
2022/04/21 12:06:27;;;;;;;;;;;;;;;13.50;79.07;97710.02;1651325;86;24785;-87
2022/04/21 12:08:17;;;;;;;;;;;;;;;13.87;77.94;97700.81;1652035;86;24459;-87
2022/04/21 12:10:43;;;;;;;;;;;;;;;13.94;77.47;97703.22;1652880;85;20243;-87
2022/04/21 12:13:09;;;;;;;;;;;;;;;14.06;77.29;97693.67;1653960;86;20772;-87
2022/04/21 12:15:36;;;;;;;;;;;;;;;14.13;76.90;97695.20;1654439;86;21979;-87
2022/04/21 12:18:03;;;;;;;;;;;;;;;14.09;76.34;97694.69;1653792;86;26072;-87
2022/04/21 12:20:33;;;;;;;;;;;;;;;14.08;75.79;97693.51;1654386;85;24411;-87
2022/04/21 12:22:59;;;;;;;;;;;;;;;14.00;74.76;97693.42;1653359;86;20294;-87
2022/04/21 12:25:30;;;;;;;;;;;;;;;14.03;74.29;97695.75;1652643;86;24921;-87
2022/04/21 12:28:03;;;;;;;;;;;;;;;14.00;73.70;97691.63;1651717;86;22526;-87
2022/04/21 12:30:29;;;;;;;;;;;;;;;14.03;73.41;97691.80;1651490;86;26115;-87
2022/04/21 12:32:57;;;;;;;;;;;;;;;13.99;72.94;97686.02;1653323;86;24468;-87
2022/04/21 12:35:45;;;;;;;;;;;;;;;13.92;72.37;97683.63;1652960;86;20262;-87
2022/04/21 12:41:01;;;;;;;;;;;;;;;13.93;71.38;97679.20;1652792;86;22798;-87
2022/04/21 12:43:28;;;;;;;;;;;;;;;13.72;69.99;97682.89;1653318;86;26036;-86
2022/04/21 12:46:00;;;;;;;;;;;;;;;13.75;69.53;97684.39;1653110;85;24526;-87
2022/04/21 12:48:30;;;;;;;;;;;;;;;13.85;69.33;97689.63;1652985;86;20155;-88
2022/04/21 12:51:07;;;;;;;;;;;;;;;14.02;69.22;97684.39;1652386;86;24907;-87
2022/04/21 12:53:40;;;;;;;;;;;;;;;14.12;69.06;97681.25;1630675;86;20505;-88
2022/04/21 12:56:09;;;;;;;;;;;;;;;14.27;68.97;97680.25;1650198;86;26058;-88
2022/04/21 12:58:35;;;;;;;;;;;;;;;14.46;68.91;97673.55;1651387;86;24600;-87
2022/04/21 13:01:02;;;;;;;;;;;;;;;14.53;68.56;97671.98;1652863;86;20754;-87
2022/04/21 13:03:35;;;;;;;;;;;;;;;14.63;68.37;97674.53;1652852;85;24430;-88
2022/04/21 13:06:01;;;;;;;;;;;;;;;14.73;68.18;97676.59;1651657;86;21998;-88
2022/04/21 13:08:28;;;;;;;;;;;;;;;14.80;67.96;97671.06;1654698;86;26028;-88
2022/04/21 13:10:56;;;;;;;;;;;;;;;14.92;67.78;97683.52;1655536;86;25201;-87
2022/04/21 13:13:26;;;;;;;;;;;;;;;15.08;67.69;97678.38;1655125;85;20358;-87
2022/04/21 13:15:53;;;;;;;;;;;;;;;15.13;67.22;97681.38;1655257;86;24841;-87
2022/04/21 13:18:19;;;;;;;;;;;;;;;15.22;66.99;97675.16;1655571;86;22075;-87
2022/04/21 13:23:37;;;;;;;;;;;;;;;15.50;66.38;97672.70;1699324;83;24508;-87
2022/04/21 13:26:03;;;;;;;;;;;;;;;15.55;65.73;97680.18;1702910;83;20231;-86
2022/04/21 13:28:29;;;;;;;;;;;;;;;15.52;65.16;97682.31;1699545;83;20702;-87
2022/04/21 13:33:50;;;;;;;;;;;;;;;15.62;64.22;97673.30;1701334;83;26082;-86
2022/04/21 13:36:16;;;;;;;;;;;;;;;15.63;63.73;97668.36;1699366;83;24415;-87
2022/04/21 13:38:44;;;;;;;;;;;;;;;15.68;63.37;97673.99;1696999;83;20528;-87
2022/04/21 13:41:12;;;;;;;;;;;;;;;15.69;63.02;97666.91;1696714;83;24783;-88
2022/04/21 13:43:38;;;;;;;;;;;;;;;15.64;62.66;97674.47;1701627;83;22160;-87
2022/04/21 13:46:04;;;;;;;;;;;;;;;15.59;62.21;97679.39;1697272;83;26029;-87
2022/04/21 13:48:31;;;;;;;;;;;;;;;15.50;61.66;97677.15;1705303;83;24490;-88
2022/04/21 13:50:57;;;;;;;;;;;;;;;15.30;60.96;97677.87;1698323;83;20210;-87
2022/04/21 13:53:23;;;;;;;;;;;;;;;15.29;60.70;97680.65;1700806;83;24787;-87